createdAt,value
2023-01-03T00:02:30.599Z,15.27
2023-01-03T00:05:16.938Z,17.27
2023-01-03T00:08:03.508Z,12.13
2023-01-03T00:10:49.806Z,12.67
2023-01-03T00:13:35.258Z,11.47
2023-01-03T00:16:22.782Z,13.70
2023-01-03T00:19:11.260Z,15.07
2023-01-03T00:21:57.631Z,13.90
2023-01-03T00:24:44.063Z,13.43
2023-01-03T00:27:30.587Z,14.80
2023-01-03T00:30:17.305Z,14.30
2023-01-03T00:33:06.580Z,13.13
2023-01-03T00:35:54.242Z,16.77
2023-01-03T00:38:40.830Z,15.27
2023-01-03T00:41:27.077Z,12.03
2023-01-03T00:44:13.289Z,10.03
2023-01-03T00:46:59.470Z,13.50
2023-01-03T00:49:45.651Z,8.00
2023-01-03T00:52:33.524Z,12.77
2023-01-03T00:55:19.879Z,11.70
2023-01-03T00:58:06.061Z,11.40
2023-01-03T01:00:52.300Z,12.53
2023-01-03T01:03:39.392Z,14.73
2023-01-03T01:06:27.394Z,12.57
2023-01-03T01:09:15.889Z,12.37
2023-01-03T01:12:02.459Z,12.80
2023-01-03T01:14:48.566Z,12.43
2023-01-03T01:17:34.883Z,8.03
2023-01-03T01:20:21.427Z,9.67
2023-01-03T01:23:08.047Z,6.57
2023-01-03T01:25:55.934Z,13.20
2023-01-03T01:28:42.740Z,11.83
2023-01-03T01:31:29.224Z,10.80
2023-01-03T01:34:17.465Z,9.73
2023-01-03T01:37:03.802Z,13.60
2023-01-03T01:39:50.027Z,10.67
2023-01-03T01:42:55.188Z,21.00
2023-01-03T01:45:41.919Z,14.23
2023-01-03T01:48:28.478Z,12.97
2023-01-03T01:51:15.019Z,10.27
2023-01-03T01:54:02.942Z,14.67
2023-01-03T01:56:51.465Z,10.23
2023-01-03T01:59:39.604Z,9.20
2023-01-03T02:02:26.062Z,12.40
2023-01-03T02:05:12.889Z,10.90
2023-01-03T02:07:59.558Z,14.17
2023-01-03T02:10:56.274Z,13.90
2023-01-03T02:13:51.328Z,12.30
2023-01-03T02:16:52.976Z,13.97
2023-01-03T02:19:51.590Z,12.83
2023-01-03T02:23:01.683Z,10.80
2023-01-03T02:26:00.192Z,10.67
2023-01-03T02:29:03.425Z,10.07
2023-01-03T02:31:54.014Z,11.10
2023-01-03T02:34:44.211Z,12.33
2023-01-03T02:37:33.018Z,11.83
2023-01-03T02:40:21.766Z,11.80
2023-01-03T02:43:13.751Z,9.70
2023-01-03T02:46:02.998Z,14.33
2023-01-03T02:48:52.902Z,16.10
2023-01-03T02:51:40.869Z,12.70
2023-01-03T02:54:29.747Z,9.97
2023-01-03T02:57:17.793Z,14.10
2023-01-03T03:00:08.285Z,14.70
2023-01-03T03:02:57.038Z,9.20
2023-01-03T03:05:47.723Z,15.03
2023-01-03T03:08:34.108Z,10.07
2023-01-03T03:11:38.049Z,10.07
2023-01-03T03:14:26.570Z,13.93
2023-01-03T03:17:14.781Z,9.47
2023-01-03T03:20:18.495Z,13.07
2023-01-03T03:23:26.963Z,7.63
2023-01-03T03:26:15.446Z,8.10
2023-01-03T03:29:03.140Z,5.63
2023-01-03T03:31:50.755Z,8.70
2023-01-03T03:34:38.321Z,6.53
2023-01-03T03:37:25.615Z,7.63
2023-01-03T03:40:30.685Z,6.47
2023-01-03T03:43:36.896Z,6.33
2023-01-03T03:46:28.271Z,4.73
2023-01-03T03:49:33.765Z,7.23
2023-01-03T03:52:22.055Z,6.93
2023-01-03T03:55:11.182Z,8.27
2023-01-03T03:58:01.132Z,8.57
2023-01-03T04:00:49.091Z,6.83
2023-01-03T04:03:36.065Z,7.37
2023-01-03T04:06:23.857Z,8.67
2023-01-03T04:09:10.171Z,6.50
2023-01-03T04:11:56.312Z,6.77
2023-01-03T04:14:43.912Z,10.20
2023-01-03T04:17:30.266Z,10.93
2023-01-03T04:20:16.595Z,8.63
2023-01-03T04:23:02.727Z,9.20
2023-01-03T04:25:49.763Z,9.90
2023-01-03T04:28:35.806Z,10.90
2023-01-03T04:31:23.648Z,5.23
2023-01-03T04:34:10.097Z,9.40
2023-01-03T04:36:56.106Z,12.03
2023-01-03T04:39:42.505Z,9.67
2023-01-03T04:42:46.298Z,12.43
2023-01-03T04:45:32.591Z,9.03
2023-01-03T04:48:20.569Z,6.23
2023-01-03T04:51:07.251Z,8.07
2023-01-03T04:53:53.956Z,7.93
2023-01-03T04:56:40.018Z,6.97
2023-01-03T04:59:26.161Z,11.10
2023-01-03T05:02:12.637Z,8.97
2023-01-03T05:05:00.173Z,5.57
2023-01-03T05:07:46.549Z,10.43
2023-01-03T05:10:32.644Z,8.90
2023-01-03T05:13:18.798Z,8.60
2023-01-03T05:16:06.725Z,10.30
2023-01-03T05:18:53.538Z,12.07
2023-01-03T05:21:59.270Z,8.77
2023-01-03T05:25:03.392Z,4.87
2023-01-03T05:27:49.476Z,5.13
2023-01-03T05:30:36.013Z,9.00
2023-01-03T05:33:22.261Z,8.20
2023-01-03T05:36:09.601Z,7.40
2023-01-03T05:38:57.121Z,11.97
2023-01-03T05:42:01.742Z,10.80
2023-01-03T05:44:48.582Z,10.20
2023-01-03T05:47:35.266Z,17.90
2023-01-03T05:50:21.492Z,16.87
2023-01-03T05:53:07.951Z,9.93
2023-01-03T05:55:55.587Z,9.70
2023-01-03T05:58:45.750Z,19.93
2023-01-03T06:01:31.912Z,16.67
2023-01-03T06:04:18.655Z,13.50
2023-01-03T06:07:05.411Z,14.47
2023-01-03T06:09:51.492Z,11.30
2023-01-03T06:12:39.757Z,11.43
2023-01-03T06:15:26.185Z,43.63
2023-01-03T06:18:11.532Z,30.83
2023-01-03T06:20:58.139Z,11.67
2023-01-03T06:23:47.490Z,23.43
2023-01-03T06:26:33.883Z,18.90
2023-01-03T06:29:21.909Z,14.20
2023-01-03T06:32:09.817Z,16.33
2023-01-03T06:34:56.661Z,17.67
2023-01-03T06:37:42.994Z,24.07
2023-01-03T06:40:37.037Z,26.00
2023-01-03T06:43:25.732Z,14.77
2023-01-03T06:46:33.074Z,13.27
2023-01-03T06:49:36.991Z,15.97
2023-01-03T06:52:43.438Z,14.43
2023-01-03T06:55:30.032Z,14.80
2023-01-03T06:58:16.530Z,16.57
2023-01-03T07:01:04.584Z,20.23
2023-01-03T07:03:52.686Z,20.13
2023-01-03T07:06:39.137Z,23.03
2023-01-03T07:09:25.856Z,19.13
2023-01-03T07:12:26.217Z,21.07
2023-01-03T07:15:12.949Z,19.60
2023-01-03T07:17:59.193Z,17.57
2023-01-03T07:20:47.342Z,15.37
2023-01-03T07:23:33.652Z,21.63
2023-01-03T07:26:19.846Z,26.07
2023-01-03T07:29:07.024Z,23.17
2023-01-03T07:31:53.145Z,21.27
2023-01-03T07:34:39.444Z,33.63
2023-01-03T07:37:27.207Z,24.27
2023-01-03T07:40:13.743Z,14.77
2023-01-03T07:43:17.367Z,15.77
2023-01-03T07:46:06.264Z,10.73
2023-01-03T07:48:53.716Z,8.50
2023-01-03T07:51:39.884Z,11.47
2023-01-03T07:54:27.875Z,10.00
2023-01-03T07:57:15.736Z,12.47
2023-01-03T08:00:01.954Z,13.53
2023-01-03T08:02:48.845Z,18.30
2023-01-03T08:05:35.805Z,12.67
2023-01-03T08:08:21.905Z,9.60
2023-01-03T08:11:29.498Z,9.67
2023-01-03T08:14:19.258Z,8.60
2023-01-03T08:17:09.733Z,14.07
2023-01-03T08:19:56.496Z,14.67
2023-01-03T08:22:42.910Z,13.90
2023-01-03T08:25:29.347Z,13.30
2023-01-03T08:28:17.279Z,12.23
2023-01-03T08:31:04.885Z,9.87
2023-01-03T08:33:53.680Z,17.93
2023-01-03T08:36:42.219Z,12.27
2023-01-03T08:39:30.715Z,14.77
2023-01-03T08:42:20.763Z,10.73
2023-01-03T08:45:11.506Z,11.70
2023-01-03T08:47:58.804Z,11.37
2023-01-03T08:50:45.077Z,11.07
2023-01-03T08:53:31.279Z,14.20
2023-01-03T08:56:17.358Z,12.53
2023-01-03T08:59:03.698Z,10.13
2023-01-03T09:01:51.384Z,10.63
2023-01-03T09:04:38.499Z,11.70
2023-01-03T09:07:24.980Z,10.70
2023-01-03T09:10:11.551Z,13.37
2023-01-03T09:12:57.904Z,9.13
2023-01-03T09:15:44.394Z,10.23
2023-01-03T09:18:32.340Z,11.70
2023-01-03T09:21:18.950Z,14.00
2023-01-03T09:24:05.712Z,13.23
2023-01-03T09:26:54.803Z,12.63
2023-01-03T09:29:41.772Z,13.47
2023-01-03T09:32:28.222Z,14.23
2023-01-03T09:35:15.893Z,12.30
2023-01-03T09:38:02.628Z,11.77
2023-01-03T09:40:50.743Z,13.07
2023-01-03T09:43:41.112Z,10.83
2023-01-03T09:46:29.022Z,10.53
2023-01-03T09:49:15.443Z,9.33
2023-01-03T09:52:20.650Z,10.10
2023-01-03T09:55:37.544Z,9.00
2023-01-03T09:58:41.308Z,8.13
2023-01-03T10:01:50.365Z,9.27
2023-01-03T10:04:49.086Z,7.73
2023-01-03T10:07:46.589Z,11.47
2023-01-03T10:10:38.214Z,10.20
2023-01-03T10:13:30.072Z,9.90
2023-01-03T10:16:20.003Z,9.57
2023-01-03T10:19:13.561Z,7.57
2023-01-03T10:22:04.231Z,9.30
2023-01-03T10:24:57.085Z,15.17
2023-01-03T10:27:46.240Z,9.60
2023-01-03T10:30:37.578Z,11.30
2023-01-03T10:33:29.607Z,10.53
2023-01-03T10:36:16.713Z,14.17
2023-01-03T10:39:07.348Z,9.33
2023-01-03T10:41:58.214Z,10.93
2023-01-03T10:44:57.030Z,8.60
2023-01-03T10:47:43.756Z,6.13
2023-01-03T10:50:30.637Z,3.50
2023-01-03T10:53:18.938Z,3.60
2023-01-03T10:56:06.260Z,4.33
2023-01-03T10:59:10.836Z,5.10
2023-01-03T11:01:58.083Z,3.00
2023-01-03T11:04:45.237Z,3.73
2023-01-03T11:07:31.951Z,2.77
2023-01-03T11:10:18.864Z,3.33
2023-01-03T11:13:17.898Z,2.47
2023-01-03T11:16:14.451Z,4.87
2023-01-03T11:19:01.869Z,3.97
2023-01-03T11:21:52.733Z,19.67
2023-01-03T11:24:50.973Z,5.03
2023-01-03T11:27:55.057Z,5.27
2023-01-03T11:30:47.400Z,3.17
2023-01-03T11:33:49.991Z,2.23
2023-01-03T11:36:41.608Z,2.70
2023-01-03T11:39:42.870Z,2.40
2023-01-03T11:42:35.655Z,3.60
2023-01-03T11:45:39.602Z,3.43
2023-01-03T11:48:36.965Z,2.63
2023-01-03T11:51:29.960Z,1.90
2023-01-03T11:54:29.907Z,3.40
2023-01-03T11:57:20.114Z,3.90
2023-01-03T12:00:11.534Z,3.30
2023-01-03T12:03:06.774Z,2.67
2023-01-03T12:05:55.134Z,2.53
2023-01-03T12:08:59.386Z,2.23
2023-01-03T12:11:53.752Z,2.17
2023-01-03T12:14:41.360Z,2.73
2023-01-03T12:17:30.925Z,2.47
2023-01-03T12:20:20.824Z,2.57
2023-01-03T12:23:15.810Z,3.70
2023-01-03T12:26:05.489Z,2.10
2023-01-03T12:28:53.325Z,3.60
2023-01-03T12:31:41.075Z,2.63
2023-01-03T12:34:31.486Z,2.50
2023-01-03T12:37:20.315Z,4.07
2023-01-03T12:40:11.749Z,44.73
2023-01-03T12:43:05.703Z,22.70
2023-01-03T12:45:54.827Z,18.07
2023-01-03T12:48:51.677Z,12.50
2023-01-03T12:51:38.437Z,26.03
2023-01-03T12:54:28.498Z,4.80
2023-01-03T12:57:42.499Z,3.07
2023-01-03T13:00:41.160Z,2.73
2023-01-03T13:03:31.089Z,2.10
2023-01-03T13:06:18.595Z,2.57
2023-01-03T13:09:05.542Z,2.67
2023-01-03T13:11:52.824Z,1.93
2023-01-03T13:14:52.813Z,2.90
2023-01-03T13:17:45.553Z,2.27
2023-01-03T13:20:36.947Z,2.87
2023-01-03T13:23:31.962Z,2.87
2023-01-03T13:26:22.666Z,2.83
2023-01-03T13:29:39.112Z,3.60
2023-01-03T13:32:28.002Z,2.57
2023-01-03T13:35:32.226Z,2.50
2023-01-03T13:38:24.486Z,3.20
2023-01-03T13:41:30.585Z,3.17
2023-01-03T13:44:18.799Z,3.67
2023-01-03T13:47:05.349Z,3.67
2023-01-03T13:49:54.007Z,1.90
2023-01-03T13:52:58.036Z,3.33
2023-01-03T13:55:54.251Z,2.90
2023-01-03T13:58:43.854Z,2.57
2023-01-03T14:01:34.366Z,1.60
2023-01-03T14:04:35.603Z,1.70
2023-01-03T14:07:41.156Z,1.60
2023-01-03T14:10:39.319Z,1.93
2023-01-03T14:13:43.705Z,3.83
2023-01-03T14:16:31.780Z,2.17
2023-01-03T14:19:20.853Z,3.03
2023-01-03T14:22:28.536Z,2.30
2023-01-03T14:25:30.195Z,9.57
2023-01-03T14:28:19.165Z,1.93
2023-01-03T14:31:06.484Z,7.47
2023-01-03T14:33:55.465Z,2.73
2023-01-03T14:36:46.070Z,20.70
2023-01-03T14:42:19.681Z,9.70
2023-01-03T14:45:08.755Z,11.27
2023-01-03T14:47:55.799Z,5.30
2023-01-03T14:50:43.031Z,6.57
2023-01-03T14:53:29.771Z,11.97
2023-01-03T14:56:16.287Z,14.00
2023-01-03T14:59:04.051Z,12.43
2023-01-03T15:01:52.172Z,5.73
2023-01-03T15:04:42.729Z,14.20
2023-01-03T15:07:33.973Z,13.17
2023-01-03T15:10:23.324Z,37.80
2023-01-03T15:13:16.965Z,14.90
2023-01-03T15:16:04.855Z,25.83
2023-01-03T15:18:52.882Z,30.60
2023-01-03T15:21:39.549Z,50.40
2023-01-03T15:24:25.890Z,19.00
2023-01-03T15:27:31.112Z,9.80
2023-01-03T15:30:23.464Z,25.63
2023-01-03T15:33:21.640Z,16.03
2023-01-03T15:36:18.516Z,43.57
2023-01-03T15:39:08.772Z,25.13
2023-01-03T15:42:43.551Z,7.03
2023-01-03T15:45:25.516Z,22.37
2023-01-03T15:48:17.530Z,17.97
2023-01-03T15:51:04.836Z,12.00
2023-01-03T15:53:53.389Z,30.57
2023-01-03T15:56:45.371Z,53.13
2023-01-03T15:59:36.821Z,47.40
2023-01-03T16:02:28.123Z,62.57
2023-01-03T16:05:21.323Z,51.00
2023-01-03T16:08:16.075Z,79.97
2023-01-03T16:11:05.313Z,65.00
2023-01-03T16:13:53.084Z,36.33
2023-01-03T16:16:41.341Z,32.27
2023-01-03T16:19:29.049Z,38.10
2023-01-03T16:25:22.235Z,34.43
2023-01-03T16:28:12.470Z,37.33
2023-01-03T16:31:03.641Z,29.30
2023-01-03T16:33:50.561Z,36.53
2023-01-03T16:36:38.273Z,37.63
2023-01-03T16:39:26.034Z,91.90
2023-01-03T16:42:15.360Z,88.73
2023-01-03T16:45:03.384Z,99.93
2023-01-03T16:47:49.956Z,75.93
2023-01-03T16:50:39.345Z,53.87
2023-01-03T16:53:28.277Z,66.27
2023-01-03T16:56:14.407Z,82.93
2023-01-03T16:59:00.812Z,95.07
2023-01-03T17:01:48.943Z,143.03
2023-01-03T17:04:35.827Z,256.17
2023-01-03T17:07:23.538Z,117.67
2023-01-03T17:10:14.119Z,216.23
2023-01-03T17:13:02.830Z,143.30
2023-01-03T17:15:53.564Z,140.23
2023-01-03T17:18:43.047Z,205.33
2023-01-03T17:21:30.872Z,262.40
2023-01-03T17:24:18.281Z,216.07
2023-01-03T17:27:05.580Z,256.47
2023-01-03T17:29:54.991Z,305.67
2023-01-03T17:32:41.079Z,487.03
2023-01-03T17:35:29.119Z,528.43
2023-01-03T17:38:32.097Z,127.90
2023-01-03T17:41:19.924Z,216.53
2023-01-03T17:44:06.190Z,87.83
2023-01-03T17:47:10.171Z,47.00
2023-01-03T17:49:56.405Z,21.93
2023-01-03T17:52:46.798Z,14.87
2023-01-03T17:55:35.280Z,40.47
2023-01-03T17:58:32.254Z,35.93
2023-01-03T18:01:18.635Z,35.40
2023-01-03T18:04:05.269Z,27.60
2023-01-03T18:06:54.973Z,155.63
2023-01-03T18:09:42.916Z,160.60
2023-01-03T18:12:29.415Z,108.03
2023-01-03T18:15:17.904Z,110.83
2023-01-03T18:18:04.377Z,121.70
2023-01-03T18:20:50.671Z,233.57
2023-01-03T18:23:38.942Z,184.87
2023-01-03T18:26:28.954Z,105.97
2023-01-03T18:29:16.231Z,83.50
2023-01-03T18:32:02.682Z,49.77
2023-01-03T18:34:49.030Z,37.53
2023-01-03T18:37:37.584Z,28.47
2023-01-03T18:40:27.424Z,48.10
2023-01-03T18:43:16.273Z,30.27
2023-01-03T18:46:04.922Z,26.10
2023-01-03T18:48:51.549Z,26.60
2023-01-03T18:51:38.109Z,25.07
2023-01-03T18:54:24.582Z,31.97
2023-01-03T18:57:12.389Z,38.23
2023-01-03T19:00:00.196Z,36.10
2023-01-03T19:02:46.808Z,31.00
2023-01-03T19:05:33.748Z,37.83
2023-01-03T19:08:21.312Z,32.90
2023-01-03T19:11:09.041Z,35.03
2023-01-03T19:13:56.294Z,34.20
2023-01-03T19:16:44.072Z,22.13
2023-01-03T19:19:30.425Z,21.80
2023-01-03T19:22:18.749Z,22.17
2023-01-03T19:25:06.599Z,38.97
2023-01-03T19:27:54.386Z,39.40
2023-01-03T19:30:41.561Z,44.80
2023-01-03T19:33:28.981Z,34.60
2023-01-03T19:36:15.862Z,41.67
2023-01-03T19:39:02.433Z,32.17
2023-01-03T19:42:07.613Z,50.53
2023-01-03T19:44:55.192Z,47.40
2023-01-03T19:47:41.691Z,43.37
2023-01-03T19:50:30.188Z,49.43
2023-01-03T19:53:16.566Z,42.63
2023-01-03T19:56:03.939Z,35.17
2023-01-03T19:58:50.969Z,27.07
2023-01-03T20:01:58.242Z,41.23
2023-01-03T20:04:45.157Z,41.00
2023-01-03T20:07:33.359Z,38.80
2023-01-03T20:10:20.630Z,45.53
2023-01-03T20:13:07.277Z,40.53
2023-01-03T20:15:54.275Z,52.63
2023-01-03T20:18:41.995Z,33.43
2023-01-03T20:21:30.426Z,31.07
2023-01-03T20:24:22.334Z,54.10
2023-01-03T20:27:11.053Z,35.70
2023-01-03T20:29:57.001Z,32.83
2023-01-03T20:32:43.529Z,32.00
2023-01-03T20:38:37.170Z,19.13
2023-01-03T20:41:36.127Z,14.77
2023-01-03T20:44:23.152Z,46.27
2023-01-03T20:47:11.462Z,39.40
2023-01-03T20:49:58.094Z,28.33
2023-01-03T20:52:44.611Z,32.60
2023-01-03T20:55:30.632Z,28.83
2023-01-03T20:58:19.692Z,22.13
2023-01-03T21:01:06.404Z,22.00
2023-01-03T21:03:53.382Z,26.37
2023-01-03T21:06:41.905Z,41.50
2023-01-03T21:09:28.217Z,27.40
2023-01-03T21:12:14.771Z,23.47
2023-01-03T21:15:02.442Z,80.37
2023-01-03T21:17:51.036Z,56.23
2023-01-03T21:20:37.890Z,61.00
2023-01-03T21:23:25.660Z,62.37
2023-01-03T21:26:11.750Z,40.50
2023-01-03T21:28:58.322Z,54.77
2023-01-03T21:31:46.687Z,24.20
2023-01-03T21:34:33.200Z,21.30
2023-01-03T21:37:19.643Z,15.57
2023-01-03T21:40:06.657Z,16.87
2023-01-03T21:43:05.256Z,13.70
2023-01-03T21:45:54.928Z,26.27
2023-01-03T21:48:43.855Z,22.80
2023-01-03T21:51:38.310Z,20.80
2023-01-03T21:54:25.836Z,22.33
2023-01-03T21:57:19.253Z,14.27
2023-01-03T22:00:11.734Z,24.07
2023-01-03T22:03:15.490Z,18.13
2023-01-03T22:06:11.916Z,25.73
2023-01-03T22:08:59.978Z,65.23
2023-01-03T22:11:46.245Z,47.40
2023-01-03T22:14:32.555Z,41.67
2023-01-03T22:17:19.070Z,23.40
2023-01-03T22:20:06.534Z,15.27
2023-01-03T22:22:54.538Z,25.53
2023-01-03T22:25:40.757Z,38.73
2023-01-03T22:28:26.792Z,27.03
2023-01-03T22:31:13.982Z,17.47
2023-01-03T22:34:00.572Z,14.00
2023-01-03T22:36:46.813Z,16.23
2023-01-03T22:39:34.884Z,15.40
2023-01-03T22:42:21.505Z,16.50
2023-01-03T22:45:08.289Z,12.93
2023-01-03T22:47:54.860Z,14.93
2023-01-03T22:50:41.530Z,16.40
2023-01-03T22:53:27.777Z,15.47
2023-01-03T22:56:16.302Z,16.87
2023-01-03T22:59:02.850Z,19.50
2023-01-03T23:01:50.318Z,22.87
2023-01-03T23:04:37.129Z,18.80
2023-01-03T23:07:23.765Z,14.97
2023-01-03T23:10:10.829Z,19.27
2023-01-03T23:13:01.142Z,14.27
2023-01-03T23:15:47.673Z,16.97
2023-01-03T23:18:34.240Z,17.67
2023-01-03T23:21:20.601Z,30.60
2023-01-03T23:24:07.137Z,25.40
2023-01-03T23:26:53.855Z,24.67
2023-01-03T23:29:41.431Z,27.67
2023-01-03T23:32:27.681Z,19.97
2023-01-03T23:35:14.300Z,16.10
2023-01-03T23:38:00.380Z,14.33
2023-01-03T23:40:46.891Z,13.53
2023-01-03T23:43:33.173Z,20.70
2023-01-03T23:46:21.526Z,15.70
2023-01-03T23:49:08.183Z,19.60
2023-01-03T23:51:54.453Z,17.80
2023-01-03T23:54:40.808Z,20.43
2023-01-03T23:57:27.432Z,22.70
